Time;durP1;ratioP1;P1;durP2;ratioP2;P2;SDS_P1;SDS_P2;PMS_P1;PMS_P2;Temp;Humidity;BMP_temperature;BMP_pressure;BME280_temperature;BME280_humidity;BME280_pressure;Samples;Min_cycle;Max_cycle;Signal;HPM_P1;HPM_P2
2023/01/27 00:01:50;;;;;;;6.05;4.40;;;10.30;67.20;;;;;;5022546;28;20125;-79
2023/01/27 00:04:16;;;;;;;7.10;4.97;;;10.30;67.20;;;;;;5037830;28;20536;-79
2023/01/27 00:06:42;;;;;;;7.65;4.03;;;10.30;67.00;;;;;;5022387;28;20116;-84
2023/01/27 00:09:08;;;;;;;7.53;4.70;;;10.20;66.70;;;;;;5004085;28;20116;-84
2023/01/27 00:14:18;;;;;;;7.90;4.57;;;10.20;66.50;;;;;;5020595;28;20130;-78
2023/01/27 00:16:44;;;;;;;5.13;4.13;;;10.30;66.50;;;;;;5021556;28;20030;-78
2023/01/27 00:19:10;;;;;;;6.43;4.43;;;10.20;66.40;;;;;;5023328;28;20068;-78
2023/01/27 00:24:35;;;;;;;5.22;3.90;;;10.20;67.20;;;;;;5021472;28;20051;-79
2023/01/27 00:27:07;;;;;;;7.10;4.63;;;10.30;66.50;;;;;;5022724;28;20049;-78
2023/01/27 00:29:34;;;;;;;5.90;3.90;;;10.20;66.40;;;;;;5038035;28;20068;-78
2023/01/27 00:34:45;;;;;;;6.72;4.05;;;10.20;66.30;;;;;;5021191;28;20046;-78
2023/01/27 00:37:12;;;;;;;7.18;4.60;;;10.20;66.20;;;;;;5022716;28;20120;-78
2023/01/27 00:39:38;;;;;;;7.63;4.60;;;10.20;66.00;;;;;;5004048;28;20404;-77
2023/01/27 00:42:04;;;;;;;6.75;4.18;;;10.20;65.90;;;;;;5025853;28;20040;-78
2023/01/27 00:44:30;;;;;;;5.90;4.00;;;10.20;65.90;;;;;;5022997;28;20120;-78
2023/01/27 00:46:56;;;;;;;6.70;4.40;;;10.20;65.90;;;;;;5008949;28;20128;-78
2023/01/27 00:49:22;;;;;;;6.38;4.32;;;10.20;65.80;;;;;;5037273;28;20064;-79
2023/01/27 00:51:48;;;;;;;5.82;4.20;;;10.20;65.80;;;;;;5023251;28;20039;-79
2023/01/27 00:54:14;;;;;;;6.32;4.20;;;10.20;65.90;;;;;;5008976;28;20060;-84
2023/01/27 00:56:40;;;;;;;6.63;4.03;;;10.20;66.10;;;;;;5022912;28;20072;-84
2023/01/27 00:59:06;;;;;;;6.78;3.88;;;10.20;66.00;;;;;;5020458;28;20132;-84
2023/01/27 01:01:33;;;;;;;6.50;4.03;;;10.20;66.00;;;;;;5003859;28;20026;-80
2023/01/27 01:03:59;;;;;;;6.50;4.32;;;10.20;66.10;;;;;;5022723;28;20093;-80
2023/01/27 01:06:26;;;;;;;5.70;3.63;;;10.20;66.40;;;;;;5023279;28;20038;-79
2023/01/27 01:08:52;;;;;;;8.20;4.45;;;10.20;66.30;;;;;;5020545;28;20056;-80
2023/01/27 01:11:20;;;;;;;5.90;3.75;;;10.20;66.10;;;;;;5022997;28;20029;-79
2023/01/27 01:13:46;;;;;;;5.90;3.65;;;10.20;66.10;;;;;;5022135;28;20409;-79
2023/01/27 01:16:18;;;;;;;5.88;4.07;;;10.20;66.10;;;;;;5004586;28;20029;-80
2023/01/27 01:18:45;;;;;;;6.60;4.13;;;10.20;66.00;;;;;;5020428;28;20087;-79
2023/01/27 01:21:11;;;;;;;6.00;4.13;;;10.20;66.00;;;;;;5023841;28;20103;-79
2023/01/27 01:23:42;;;;;;;5.07;3.58;;;10.20;65.90;;;;;;5019876;28;20142;-79
2023/01/27 01:26:10;;;;;;;5.18;3.47;;;10.20;65.90;;;;;;5037248;28;20044;-79
2023/01/27 01:28:37;;;;;;;5.10;3.95;;;10.20;65.90;;;;;;5020166;28;20029;-78
2023/01/27 01:31:12;;;;;;;7.45;3.22;;;10.20;65.90;;;;;;5025180;28;20530;-83
2023/01/27 01:33:38;;;;;;;6.40;3.78;;;10.10;65.80;;;;;;5018283;28;20416;-82
2023/01/27 01:36:10;;;;;;;5.00;3.58;;;10.10;65.60;;;;;;4993166;28;20056;-83
2023/01/27 01:38:36;;;;;;;4.82;3.53;;;10.10;65.90;;;;;;5019991;28;20055;-82
2023/01/27 01:41:04;;;;;;;4.32;3.20;;;10.10;65.70;;;;;;5021183;28;20080;-83
2023/01/27 01:43:30;;;;;;;4.45;3.53;;;10.10;65.60;;;;;;5003006;28;20040;-82
2023/01/27 01:46:00;;;;;;;5.13;3.65;;;10.10;65.50;;;;;;5023188;28;20617;-81
2023/01/27 01:48:50;;;;;;;4.63;3.50;;;10.10;65.30;;;;;;5022265;28;20037;-82
2023/01/27 01:51:44;;;;;;;4.70;3.42;;;10.10;65.30;;;;;;5037590;28;20045;-82
2023/01/27 01:54:10;;;;;;;4.70;3.35;;;10.10;65.50;;;;;;5020801;28;20546;-83
2023/01/27 01:56:53;;;;;;;5.18;3.58;;;10.10;65.40;;;;;;5021128;28;20152;-82
2023/01/27 01:59:31;;;;;;;5.60;3.28;;;10.10;65.40;;;;;;5008444;28;20037;-82
2023/01/27 02:02:02;;;;;;;4.03;3.00;;;10.10;65.30;;;;;;5022599;28;20464;-81
2023/01/27 02:04:37;;;;;;;4.15;3.40;;;10.10;65.20;;;;;;5036174;28;20477;-82
2023/01/27 02:07:19;;;;;;;3.97;3.00;;;10.10;65.30;;;;;;5016710;28;20071;-87
2023/01/27 02:09:44;;;;;;;4.43;3.10;;;10.10;65.30;;;;;;5021036;28;20030;-83
2023/01/27 02:12:10;;;;;;;3.85;2.75;;;10.10;65.40;;;;;;5003664;28;20084;-83
2023/01/27 02:14:38;;;;;;;3.58;2.90;;;10.10;65.40;;;;;;5019732;28;20104;-82
2023/01/27 02:17:05;;;;;;;3.17;2.70;;;10.10;65.40;;;;;;5019623;28;20056;-84
2023/01/27 02:19:45;;;;;;;3.90;2.90;;;10.10;65.50;;;;;;5007700;28;20056;-82
2023/01/27 02:22:19;;;;;;;3.83;2.60;;;10.00;65.50;;;;;;5023685;28;20563;-83
2023/01/27 02:24:52;;;;;;;3.65;2.78;;;10.10;65.50;;;;;;5018998;28;20408;-84
2023/01/27 02:27:18;;;;;;;3.28;2.42;;;10.10;65.40;;;;;;5006661;28;20534;-81
2023/01/27 02:29:44;;;;;;;2.83;2.35;;;10.00;65.30;;;;;;5018680;28;20645;-80
2023/01/27 02:32:24;;;;;;;3.00;2.58;;;10.10;65.40;;;;;;5022512;28;20519;-80
2023/01/27 02:34:52;;;;;;;3.17;2.30;;;10.00;65.30;;;;;;5020128;28;20507;-81
2023/01/27 02:37:20;;;;;;;2.47;2.00;;;10.00;65.20;;;;;;5002726;28;20124;-81
2023/01/27 02:39:48;;;;;;;3.05;2.22;;;10.00;65.20;;;;;;5003523;28;20083;-80
2023/01/27 02:42:16;;;;;;;2.22;1.95;;;10.00;65.10;;;;;;5020491;28;20091;-79
2023/01/27 02:44:42;;;;;;;2.72;2.10;;;10.00;65.00;;;;;;5020285;28;20034;-79
2023/01/27 02:47:08;;;;;;;1.90;1.70;;;10.00;64.90;;;;;;5021230;28;20049;-80
2023/01/27 02:49:34;;;;;;;2.15;1.90;;;10.00;64.90;;;;;;5020157;28;20385;-79
2023/01/27 02:52:01;;;;;;;1.92;1.75;;;10.00;64.80;;;;;;5003014;28;20439;-79
2023/01/27 02:54:29;;;;;;;2.20;2.00;;;10.00;64.90;;;;;;5023080;28;20481;-79
2023/01/27 02:56:56;;;;;;;2.50;2.00;;;10.00;64.90;;;;;;5019147;28;20072;-80
2023/01/27 02:59:24;;;;;;;2.08;1.60;;;10.00;64.90;;;;;;5001994;28;20451;-78
2023/01/27 03:01:50;;;;;;;2.70;2.17;;;10.00;64.90;;;;;;5019199;28;20099;-79
2023/01/27 03:04:16;;;;;;;2.92;1.80;;;10.00;64.80;;;;;;5021690;28;20037;-79
2023/01/27 03:06:43;;;;;;;2.63;1.90;;;10.00;64.80;;;;;;5020315;28;20041;-79
2023/01/27 03:09:09;;;;;;;2.08;1.70;;;10.00;64.70;;;;;;5018549;28;20455;-79
2023/01/27 03:14:21;;;;;;;2.55;1.88;;;10.00;64.60;;;;;;5017768;28;20037;-78
2023/01/27 03:19:31;;;;;;;2.80;2.05;;;10.00;64.50;;;;;;5016662;28;20485;-78
2023/01/27 03:22:00;;;;;;;2.28;1.90;;;10.00;64.40;;;;;;5020624;28;20046;-77
2023/01/27 03:24:28;;;;;;;3.08;1.98;;;10.00;64.60;;;;;;5034823;28;20472;-77
2023/01/27 03:26:57;;;;;;;1.77;1.50;;;10.00;64.60;;;;;;5020554;28;20050;-78
2023/01/27 03:32:19;;;;;;;1.90;1.60;;;10.00;64.70;;;;;;5018507;28;20622;-82
2023/01/27 03:35:01;;;;;;;2.67;1.83;;;10.00;64.80;;;;;;5006483;28;20049;-78
2023/01/27 03:48:36;;;;;;;2.15;1.80;;;9.90;64.70;;;;;;5022775;28;20624;-79
2023/01/27 03:51:04;;;;;;;1.98;1.75;;;10.00;64.80;;;;;;5024204;28;20119;-79
2023/01/27 03:53:30;;;;;;;1.58;1.33;;;10.00;64.90;;;;;;5021640;28;20037;-78
2023/01/27 03:55:57;;;;;;;1.60;1.50;;;9.90;64.80;;;;;;5022669;28;21211;-77
2023/01/27 03:58:24;;;;;;;1.67;1.58;;;10.00;64.80;;;;;;5022246;28;20029;-77
2023/01/27 04:00:53;;;;;;;3.70;1.90;;;9.90;64.90;;;;;;5023794;28;20033;-79
2023/01/27 04:09:00;;;;;;;1.77;1.50;;;10.00;65.00;;;;;;5037585;28;20467;-77
2023/01/27 04:14:11;;;;;;;2.35;1.65;;;9.90;65.20;;;;;;5022468;28;20044;-77
2023/01/27 04:16:37;;;;;;;3.10;1.65;;;10.00;65.20;;;;;;4992693;28;20037;-77
2023/01/27 04:19:05;;;;;;;2.22;1.60;;;9.90;65.30;;;;;;5022968;28;20029;-78
2023/01/27 04:21:32;;;;;;;1.95;1.75;;;9.90;65.20;;;;;;5022624;28;20036;-77
2023/01/27 04:23:58;;;;;;;2.60;1.60;;;10.00;65.10;;;;;;5020470;28;20045;-77
2023/01/27 04:26:25;;;;;;;1.83;1.45;;;9.90;65.10;;;;;;5023460;28;20768;-76
2023/01/27 04:28:51;;;;;;;1.92;1.73;;;10.00;65.20;;;;;;5023374;28;20060;-76
2023/01/27 04:31:17;;;;;;;2.15;1.80;;;9.90;65.00;;;;;;5025652;28;20049;-77
2023/01/27 04:33:44;;;;;;;2.00;1.65;;;10.00;65.00;;;;;;5022809;28;20616;-78
2023/01/27 04:36:14;;;;;;;2.65;1.80;;;9.90;65.00;;;;;;5021592;28;20622;-76
2023/01/27 04:38:40;;;;;;;1.60;1.50;;;9.90;65.20;;;;;;5022108;28;20484;-77
2023/01/27 04:41:06;;;;;;;2.08;1.70;;;9.90;65.30;;;;;;5027157;28;20039;-76
2023/01/27 04:43:32;;;;;;;2.28;1.50;;;9.90;65.40;;;;;;5030469;28;20040;-76
2023/01/27 04:45:57;;;;;;;2.50;1.80;;;9.90;65.50;;;;;;5031092;28;20136;-75
2023/01/27 04:48:23;;;;;;;1.92;1.70;;;10.00;65.80;;;;;;5028614;28;20419;-76
2023/01/27 04:50:49;;;;;;;2.15;1.50;;;10.00;66.10;;;;;;5028884;28;20049;-75
2023/01/27 04:53:15;;;;;;;2.28;1.73;;;9.90;65.70;;;;;;5028053;28;20084;-77
2023/01/27 04:55:47;;;;;;;2.33;1.95;;;10.00;66.00;;;;;;5021083;28;20041;-76
2023/01/27 04:58:15;;;;;;;4.80;2.08;;;10.00;66.30;;;;;;5022279;28;20623;-77
2023/01/27 05:00:42;;;;;;;4.80;1.95;;;10.00;66.40;;;;;;5021067;28;20450;-76
2023/01/27 05:03:09;;;;;;;3.53;2.30;;;10.00;66.50;;;;;;5021492;28;20044;-77
2023/01/27 05:05:36;;;;;;;2.35;1.83;;;10.00;66.60;;;;;;5025212;28;20064;-77
2023/01/27 05:08:06;;;;;;;3.50;2.40;;;10.00;66.90;;;;;;5020115;28;20514;-76
2023/01/27 05:10:32;;;;;;;5.80;2.25;;;10.00;67.30;;;;;;5020427;28;20443;-77
2023/01/27 05:13:00;;;;;;;4.35;2.15;;;10.00;67.30;;;;;;5022369;28;20124;-77
2023/01/27 05:15:27;;;;;;;3.58;1.98;;;10.00;67.20;;;;;;5020054;28;20064;-77
2023/01/27 05:17:53;;;;;;;4.15;2.28;;;10.00;67.00;;;;;;5021529;28;20030;-76
2023/01/27 05:20:19;;;;;;;3.95;2.45;;;9.90;67.00;;;;;;5019877;28;20025;-77
2023/01/27 05:22:45;;;;;;;7.30;3.08;;;10.00;67.00;;;;;;5019747;28;20053;-76
2023/01/27 05:25:11;;;;;;;4.40;2.72;;;10.00;67.00;;;;;;5020602;28;20070;-76
2023/01/27 05:27:38;;;;;;;3.80;2.35;;;9.90;67.00;;;;;;5022277;28;20668;-76
2023/01/27 05:30:04;;;;;;;4.20;2.70;;;9.90;66.90;;;;;;5019914;28;20107;-76
2023/01/27 05:32:30;;;;;;;3.65;2.42;;;10.00;67.00;;;;;;5020703;28;20132;-77
2023/01/27 05:34:56;;;;;;;5.25;2.70;;;10.00;66.80;;;;;;5020334;28;20120;-77
2023/01/27 05:37:22;;;;;;;3.92;2.35;;;10.00;66.80;;;;;;5019947;28;20075;-77
2023/01/27 05:39:48;;;;;;;3.25;2.30;;;9.90;66.50;;;;;;5019696;28;20041;-77
2023/01/27 05:42:14;;;;;;;3.17;2.50;;;9.90;66.50;;;;;;5019412;28;20083;-82
2023/01/27 05:44:40;;;;;;;4.97;2.83;;;10.00;66.50;;;;;;5021329;28;20447;-77
2023/01/27 05:47:05;;;;;;;3.92;2.75;;;10.00;67.00;;;;;;5022223;28;20053;-75
2023/01/27 05:49:32;;;;;;;4.18;2.28;;;10.00;66.50;;;;;;5019607;28;20120;-81
2023/01/27 05:51:58;;;;;;;3.70;2.35;;;10.00;66.50;;;;;;5021739;28;20875;-80
2023/01/27 05:54:24;;;;;;;3.17;2.42;;;10.00;66.40;;;;;;5018685;28;20128;-78
2023/01/27 05:56:50;;;;;;;5.15;2.97;;;10.00;66.60;;;;;;5019657;28;20807;-80
2023/01/27 05:59:16;;;;;;;4.30;2.60;;;10.00;66.80;;;;;;5019266;28;20040;-82
2023/01/27 06:01:42;;;;;;;3.70;3.00;;;10.00;66.90;;;;;;5034345;28;20500;-82
2023/01/27 06:04:09;;;;;;;6.90;2.75;;;10.00;67.10;;;;;;5001235;28;20034;-81
2023/01/27 06:06:35;;;;;;;4.32;3.05;;;10.00;67.10;;;;;;5020422;28;20063;-78
2023/01/27 06:09:01;;;;;;;4.80;3.13;;;10.00;67.20;;;;;;5017647;28;20551;-77
2023/01/27 06:11:27;;;;;;;4.13;2.70;;;10.00;67.10;;;;;;5016957;28;20033;-77
2023/01/27 06:13:53;;;;;;;4.25;2.88;;;10.00;67.10;;;;;;5017932;28;20033;-79
2023/01/27 06:16:21;;;;;;;4.00;2.97;;;10.00;67.00;;;;;;5018230;28;20029;-78
2023/01/27 06:18:48;;;;;;;4.60;2.75;;;10.00;67.00;;;;;;5019042;28;20041;-78
2023/01/27 06:21:15;;;;;;;6.93;2.75;;;10.00;67.00;;;;;;5020276;28;20432;-78
2023/01/27 06:23:42;;;;;;;5.03;2.85;;;10.00;67.10;;;;;;5016911;28;20038;-77
2023/01/27 06:26:10;;;;;;;3.95;2.75;;;10.00;66.80;;;;;;5016488;28;20049;-77
2023/01/27 06:28:37;;;;;;;6.55;2.65;;;10.00;66.80;;;;;;5016384;28;20510;-77
2023/01/27 06:31:14;;;;;;;6.32;2.90;;;10.00;66.80;;;;;;5017757;28;20424;-77
2023/01/27 06:33:41;;;;;;;3.67;2.97;;;10.00;66.60;;;;;;5018711;28;20037;-77
2023/01/27 06:36:09;;;;;;;3.28;2.53;;;10.00;66.50;;;;;;5018153;28;20648;-77
2023/01/27 06:38:36;;;;;;;3.70;2.28;;;10.00;66.60;;;;;;5016440;28;20033;-76
2023/01/27 06:41:02;;;;;;;6.50;3.00;;;10.00;66.70;;;;;;5015934;28;20034;-76
2023/01/27 06:43:28;;;;;;;4.13;2.45;;;10.00;66.90;;;;;;5015784;28;20124;-77
2023/01/27 06:45:56;;;;;;;4.15;2.58;;;10.00;67.00;;;;;;4988235;28;20045;-74
2023/01/27 06:48:22;;;;;;;4.60;2.90;;;10.00;66.90;;;;;;5016215;28;20357;-76
2023/01/27 06:50:48;;;;;;;3.67;2.10;;;10.00;66.80;;;;;;5014626;28;20030;-77
2023/01/27 06:53:14;;;;;;;4.32;2.80;;;10.00;66.50;;;;;;5016412;28;20558;-75
2023/01/27 06:55:42;;;;;;;3.67;2.72;;;10.00;66.50;;;;;;5016813;28;20314;-77
2023/01/27 06:58:10;;;;;;;4.25;2.47;;;10.00;66.50;;;;;;4999563;28;20029;-76
2023/01/27 07:00:37;;;;;;;4.15;3.10;;;10.00;66.50;;;;;;5016053;28;20069;-78
2023/01/27 07:03:04;;;;;;;3.13;2.33;;;10.00;66.50;;;;;;5017093;28;20482;-78
2023/01/27 07:05:31;;;;;;;4.25;2.50;;;10.00;66.50;;;;;;5020614;28;20030;-78
2023/01/27 07:07:58;;;;;;;4.70;2.47;;;10.00;66.30;;;;;;5015952;28;20061;-77
2023/01/27 07:10:24;;;;;;;3.97;2.45;;;10.00;66.20;;;;;;5017987;28;20104;-77
2023/01/27 07:12:50;;;;;;;5.07;2.47;;;10.00;66.10;;;;;;5032684;28;20038;-77
2023/01/27 07:15:16;;;;;;;2.83;2.30;;;10.00;66.20;;;;;;5020991;28;20033;-77
2023/01/27 07:17:42;;;;;;;3.88;2.50;;;10.00;66.20;;;;;;5024502;28;20088;-77
2023/01/27 07:20:11;;;;;;;4.40;2.55;;;10.00;66.30;;;;;;5007311;28;20053;-77
2023/01/27 07:22:37;;;;;;;4.70;2.38;;;10.00;66.50;;;;;;5021857;28;20048;-77
2023/01/27 07:25:05;;;;;;;4.80;2.40;;;10.00;66.20;;;;;;5008362;28;20124;-77
2023/01/27 07:27:31;;;;;;;4.25;2.50;;;10.00;66.20;;;;;;4992244;28;20559;-78
2023/01/27 07:29:57;;;;;;;3.78;2.40;;;10.00;66.00;;;;;;5018015;28;20334;-79
2023/01/27 07:32:23;;;;;;;3.13;2.28;;;10.00;66.10;;;;;;5020593;28;20311;-79
2023/01/27 07:34:49;;;;;;;3.83;2.30;;;10.10;65.90;;;;;;5020735;28;20331;-78
2023/01/27 07:37:15;;;;;;;3.47;2.33;;;10.00;65.70;;;;;;5021536;28;20511;-79
2023/01/27 07:39:41;;;;;;;3.15;2.45;;;10.10;65.70;;;;;;5020162;28;20504;-78
2023/01/27 07:42:09;;;;;;;4.30;2.40;;;10.00;65.40;;;;;;5022187;28;20040;-78
2023/01/27 07:44:35;;;;;;;2.60;2.10;;;10.00;65.40;;;;;;5000431;28;20038;-78
2023/01/27 07:47:01;;;;;;;3.55;2.33;;;10.10;65.30;;;;;;5020580;28;20108;-77
2023/01/27 07:49:27;;;;;;;3.30;2.30;;;10.10;65.20;;;;;;5021620;28;20533;-78
2023/01/27 07:51:53;;;;;;;2.65;2.13;;;10.10;65.30;;;;;;5019996;28;20044;-77
2023/01/27 07:54:19;;;;;;;2.88;2.35;;;10.10;65.20;;;;;;5022532;28;20131;-77
2023/01/27 07:56:45;;;;;;;2.50;2.30;;;10.10;65.10;;;;;;5018541;28;20468;-77
2023/01/27 07:59:11;;;;;;;3.80;2.45;;;10.10;65.10;;;;;;5035216;28;20033;-78
2023/01/27 08:01:37;;;;;;;3.13;2.30;;;10.10;65.00;;;;;;5017042;28;20594;-77
2023/01/27 08:04:03;;;;;;;3.63;2.55;;;10.10;64.90;;;;;;5019539;28;20033;-77
2023/01/27 08:06:29;;;;;;;3.88;2.20;;;10.10;64.90;;;;;;5002967;28;20447;-77
2023/01/27 08:08:55;;;;;;;3.88;2.65;;;10.10;64.80;;;;;;5002275;28;20030;-76
2023/01/27 08:11:21;;;;;;;2.63;2.17;;;10.10;64.60;;;;;;4991184;28;20385;-77
2023/01/27 08:13:47;;;;;;;3.20;2.58;;;10.10;64.50;;;;;;5020469;28;20495;-77
2023/01/27 08:16:14;;;;;;;3.10;2.38;;;10.10;64.50;;;;;;5021480;28;20065;-77
2023/01/27 08:18:40;;;;;;;5.25;2.65;;;10.20;64.50;;;;;;5019123;28;20034;-78
2023/01/27 08:21:09;;;;;;;4.53;2.60;;;10.20;64.40;;;;;;5019763;28;20037;-78
2023/01/27 08:23:35;;;;;;;2.45;2.25;;;10.20;64.20;;;;;;5017775;28;20039;-78
2023/01/27 08:26:03;;;;;;;3.60;2.33;;;10.10;64.20;;;;;;5001434;28;20480;-78
2023/01/27 08:28:31;;;;;;;2.95;2.15;;;10.20;64.20;;;;;;5020894;28;20029;-78
2023/01/27 08:31:12;;;;;;;2.83;2.15;;;10.20;64.30;;;;;;5019261;28;20087;-79
2023/01/27 08:33:39;;;;;;;3.38;2.17;;;10.20;64.40;;;;;;5005357;28;20048;-77
2023/01/27 08:36:11;;;;;;;4.18;2.28;;;10.20;64.50;;;;;;5018908;28;20037;-77
2023/01/27 08:38:38;;;;;;;3.75;2.15;;;10.20;64.40;;;;;;5000237;28;20037;-78
2023/01/27 08:41:06;;;;;;;3.00;2.50;;;10.20;64.30;;;;;;5019877;28;20472;-79
2023/01/27 08:43:32;;;;;;;3.00;2.42;;;10.20;64.30;;;;;;5017433;28;20032;-78
2023/01/27 08:45:59;;;;;;;4.13;2.30;;;10.20;64.20;;;;;;5016891;28;20168;-79
2023/01/27 08:48:30;;;;;;;2.35;2.15;;;10.20;64.00;;;;;;5006667;28;20128;-78
2023/01/27 08:50:57;;;;;;;3.83;2.53;;;10.20;63.80;;;;;;5018732;28;20037;-78
2023/01/27 08:53:24;;;;;;;4.18;2.70;;;10.30;63.70;;;;;;5017072;28;20030;-78
2023/01/27 08:55:53;;;;;;;4.22;2.70;;;10.20;63.60;;;;;;5002628;28;20033;-77
2023/01/27 08:58:20;;;;;;;3.60;2.50;;;10.30;63.60;;;;;;5020896;28;20064;-77
2023/01/27 09:00:46;;;;;;;3.80;2.35;;;10.30;63.50;;;;;;5017959;28;20064;-78
2023/01/27 09:03:12;;;;;;;3.40;2.70;;;10.30;63.40;;;;;;5002209;28;20029;-77
2023/01/27 09:05:39;;;;;;;3.15;2.65;;;10.30;63.30;;;;;;5032730;28;20042;-77
2023/01/27 09:08:06;;;;;;;3.42;2.45;;;10.30;63.10;;;;;;5020756;28;20038;-77
2023/01/27 09:10:35;;;;;;;3.60;2.65;;;10.30;63.20;;;;;;5019383;28;20128;-77
2023/01/27 09:13:01;;;;;;;3.85;2.55;;;10.40;63.50;;;;;;5018945;28;20026;-77
2023/01/27 09:15:27;;;;;;;3.53;2.47;;;10.40;63.40;;;;;;5005771;28;20458;-77
2023/01/27 09:17:53;;;;;;;3.25;2.53;;;10.40;63.50;;;;;;5019643;28;20459;-78
2023/01/27 09:20:19;;;;;;;3.10;2.40;;;10.40;63.50;;;;;;5019796;28;20033;-77
2023/01/27 09:22:45;;;;;;;4.18;2.95;;;10.40;63.60;;;;;;5020954;28;20061;-77
2023/01/27 09:25:15;;;;;;;3.28;2.47;;;10.50;63.70;;;;;;5016448;28;20045;-78
2023/01/27 09:27:42;;;;;;;3.33;2.88;;;10.40;63.60;;;;;;4988936;28;21134;-77
2023/01/27 09:30:13;;;;;;;6.85;2.83;;;10.50;63.60;;;;;;5012965;28;20056;-76
2023/01/27 09:32:40;;;;;;;3.75;2.60;;;10.50;63.60;;;;;;4988058;28;20048;-77
2023/01/27 09:35:06;;;;;;;5.55;2.45;;;10.50;63.60;;;;;;5019149;28;20133;-77
2023/01/27 09:37:38;;;;;;;3.08;2.63;;;10.50;63.60;;;;;;5017041;28;20025;-77
2023/01/27 09:40:22;;;;;;;3.92;3.03;;;10.50;63.60;;;;;;5018042;28;20365;-76
2023/01/27 09:43:03;;;;;;;3.83;2.83;;;10.60;63.40;;;;;;5018389;28;20033;-75
2023/01/27 09:45:56;;;;;;;3.58;2.50;;;10.60;63.30;;;;;;5015557;28;20057;-77
2023/01/27 09:48:41;;;;;;;3.83;2.85;;;10.60;63.40;;;;;;5018035;28;20411;-77
2023/01/27 09:51:30;;;;;;;3.33;2.60;;;10.60;63.70;;;;;;5019600;28;20033;-77
2023/01/27 09:54:25;;;;;;;3.97;2.85;;;10.60;63.60;;;;;;5001041;28;20497;-77
2023/01/27 09:57:11;;;;;;;3.92;2.50;;;10.60;63.60;;;;;;4961226;28;20577;-77
2023/01/27 10:00:00;;;;;;;3.47;2.42;;;10.60;63.20;;;;;;4961882;28;20042;-76
2023/01/27 10:02:45;;;;;;;3.85;2.50;;;10.70;63.10;;;;;;4954753;28;20184;-77
2023/01/27 10:05:33;;;;;;;4.25;2.78;;;10.70;62.90;;;;;;4961678;28;20082;-76
2023/01/27 10:08:08;;;;;;;3.92;2.67;;;10.60;62.70;;;;;;4945484;28;20043;-76
2023/01/27 10:10:43;;;;;;;4.53;2.85;;;10.70;62.80;;;;;;4945675;28;20035;-76
2023/01/27 10:13:14;;;;;;;3.13;2.63;;;10.70;62.80;;;;;;4946247;28;20581;-76
2023/01/27 10:15:46;;;;;;;3.58;2.50;;;10.70;62.80;;;;;;4945364;28;20034;-76
2023/01/27 10:18:36;;;;;;;3.63;2.47;;;10.70;62.70;;;;;;4940868;28;20046;-77
2023/01/27 10:21:15;;;;;;;2.80;2.40;;;10.70;62.70;;;;;;4961166;28;20042;-77
2023/01/27 10:24:07;;;;;;;3.20;2.65;;;10.80;62.50;;;;;;4961612;28;20049;-76
2023/01/27 10:26:45;;;;;;;4.00;2.40;;;10.80;62.50;;;;;;4961533;28;20129;-76
2023/01/27 10:29:24;;;;;;;4.80;2.95;;;10.80;62.30;;;;;;4961342;28;20149;-77
2023/01/27 10:32:21;;;;;;;4.53;2.92;;;10.80;62.30;;;;;;4942666;28;20437;-76
2023/01/27 10:35:03;;;;;;;3.90;2.85;;;10.80;62.30;;;;;;5032470;28;20461;-76
2023/01/27 10:37:51;;;;;;;3.08;2.60;;;10.80;62.30;;;;;;5017137;28;20033;-77
2023/01/27 10:40:46;;;;;;;3.22;2.47;;;10.80;62.30;;;;;;4980649;28;20628;-75
2023/01/27 10:43:44;;;;;;;2.97;2.45;;;10.80;62.30;;;;;;4922779;29;20047;-76
2023/01/27 10:46:47;;;;;;;3.13;2.80;;;10.80;62.40;;;;;;4893525;29;20108;-74
2023/01/27 10:49:26;;;;;;;7.32;3.00;;;10.80;62.40;;;;;;4887929;29;20045;-77
2023/01/27 10:51:55;;;;;;;4.20;2.95;;;10.80;62.40;;;;;;4894545;29;20048;-76
2023/01/27 10:54:36;;;;;;;3.70;2.88;;;10.90;62.30;;;;;;4893093;29;20473;-75
2023/01/27 10:57:10;;;;;;;5.78;2.97;;;10.90;62.30;;;;;;4893230;29;20040;-76
2023/01/27 10:59:44;;;;;;;5.82;3.15;;;10.90;62.20;;;;;;4895185;29;20033;-75
2023/01/27 11:02:23;;;;;;;4.28;2.95;;;10.90;62.30;;;;;;4894450;29;20040;-75
2023/01/27 11:04:58;;;;;;;5.95;2.80;;;10.90;62.30;;;;;;4893978;29;20520;-74
2023/01/27 11:07:24;;;;;;;;;;;10.90;62.30;;;;;;4894755;29;20044;-74
2023/01/27 11:10:07;;;;;;;4.75;3.00;;;10.90;62.40;;;;;;4885629;29;20347;-75
2023/01/27 11:12:36;;;;;;;3.63;2.83;;;10.90;62.30;;;;;;4881800;29;20032;-74
2023/01/27 11:15:17;;;;;;;3.50;2.60;;;10.90;62.30;;;;;;4886898;29;20096;-75
2023/01/27 11:17:52;;;;;;;3.88;2.97;;;10.90;62.50;;;;;;4897141;29;20040;-74
2023/01/27 11:20:34;;;;;;;3.90;2.95;;;10.90;62.50;;;;;;4940720;28;20053;-74
2023/01/27 11:23:14;;;;;;;4.63;2.78;;;10.90;62.40;;;;;;5012622;28;20038;-74
2023/01/27 11:25:53;;;;;;;4.20;3.15;;;11.00;62.50;;;;;;5017319;28;20033;-74
2023/01/27 11:28:40;;;;;;;3.75;2.90;;;10.90;62.50;;;;;;5014807;28;20407;-74
2023/01/27 11:31:28;;;;;;;4.68;3.17;;;11.00;62.50;;;;;;5031592;28;20050;-76
2023/01/27 11:33:56;;;;;;;3.45;2.55;;;11.00;62.50;;;;;;5016818;28;20046;-75
2023/01/27 11:36:24;;;;;;;3.67;2.80;;;11.00;62.60;;;;;;5020381;28;20033;-76
2023/01/27 11:38:51;;;;;;;4.30;3.03;;;11.00;63.10;;;;;;5013857;28;20038;-74
2023/01/27 11:41:17;;;;;;;6.15;2.60;;;11.00;62.50;;;;;;5014950;28;20038;-74
2023/01/27 11:43:43;;;;;;;4.40;2.95;;;11.00;62.40;;;;;;5016426;28;20520;-75
2023/01/27 11:46:15;;;;;;;3.47;2.83;;;11.00;62.40;;;;;;5017054;28;20229;-75
2023/01/27 11:48:44;;;;;;;3.38;2.65;;;11.00;62.50;;;;;;5015692;28;20509;-74
2023/01/27 11:51:20;;;;;;;2.90;2.60;;;11.00;62.50;;;;;;5015204;28;20125;-76
2023/01/27 11:54:12;;;;;;;4.05;3.15;;;11.10;62.60;;;;;;5014899;28;20109;-76
2023/01/27 11:56:39;;;;;;;3.33;2.75;;;11.00;62.70;;;;;;5015521;28;20034;-75
2023/01/27 11:59:21;;;;;;;3.83;2.67;;;11.10;62.80;;;;;;5014900;28;20520;-76
2023/01/27 12:02:16;;;;;;;4.80;2.85;;;11.10;62.80;;;;;;5016074;28;20029;-75
2023/01/27 12:04:51;;;;;;;5.38;3.15;;;11.10;62.80;;;;;;5018044;28;20022;-76
2023/01/27 12:08:00;;;;;;;5.90;3.22;;;11.00;62.80;;;;;;5018906;28;20034;-76
2023/01/27 12:10:29;;;;;;;4.07;2.95;;;11.10;62.80;;;;;;4958404;28;20507;-76
2023/01/27 12:12:57;;;;;;;4.07;3.05;;;11.10;62.70;;;;;;4942367;28;20178;-76
2023/01/27 12:15:26;;;;;;;5.65;3.45;;;11.10;62.70;;;;;;4958430;28;20057;-78
2023/01/27 12:17:59;;;;;;;4.35;3.08;;;11.10;62.80;;;;;;4929969;28;20042;-78
2023/01/27 12:20:35;;;;;;;4.13;2.97;;;11.10;62.90;;;;;;4946473;28;20049;-77
2023/01/27 12:23:24;;;;;;;;;;;11.10;63.10;;;;;;4942955;28;20592;-79
2023/01/27 12:25:58;;;;;;;4.55;3.15;;;11.10;63.10;;;;;;4954979;28;20401;-77
2023/01/27 12:28:48;;;;;;;4.32;2.95;;;11.10;63.00;;;;;;4942238;28;20031;-76
2023/01/27 12:31:22;;;;;;;3.20;2.67;;;11.10;63.00;;;;;;4956594;28;20050;-77
2023/01/27 12:34:46;;;;;;;3.20;2.83;;;11.10;63.00;;;;;;4958385;28;20042;-78
2023/01/27 12:37:26;;;;;;;4.97;3.47;;;11.10;63.00;;;;;;4904581;29;20059;-77
2023/01/27 12:40:15;;;;;;;3.55;2.63;;;11.10;63.10;;;;;;4904935;29;20044;-77
2023/01/27 12:42:46;;;;;;;4.55;3.42;;;11.10;63.20;;;;;;4905608;29;20039;-77
2023/01/27 12:45:28;;;;;;;5.38;3.63;;;11.10;63.20;;;;;;4916403;28;20038;-76
2023/01/27 12:48:04;;;;;;;3.47;2.90;;;11.10;63.30;;;;;;4957462;28;20142;-81
2023/01/27 12:50:33;;;;;;;7.65;3.28;;;11.10;63.30;;;;;;4957991;28;20612;-82
2023/01/27 12:53:18;;;;;;;4.75;3.05;;;11.10;63.30;;;;;;4941343;28;20042;-83
2023/01/27 12:56:07;;;;;;;6.63;4.03;;;11.10;63.30;;;;;;4958957;28;20067;-82
2023/01/27 12:58:35;;;;;;;7.22;3.30;;;11.10;63.30;;;;;;4958981;28;20023;-81
2023/01/27 13:01:19;;;;;;;5.93;3.50;;;11.10;63.30;;;;;;4958287;28;20142;-82
2023/01/27 13:03:50;;;;;;;6.97;3.47;;;11.10;63.30;;;;;;4959168;28;20080;-78
2023/01/27 13:06:19;;;;;;;6.97;3.60;;;11.10;63.20;;;;;;4942403;28;20039;-79
2023/01/27 13:08:49;;;;;;;8.13;3.35;;;11.10;63.30;;;;;;5004610;28;20034;-79
2023/01/27 13:11:19;;;;;;;10.02;3.90;;;11.10;63.20;;;;;;5018340;28;20168;-79
2023/01/27 13:13:52;;;;;;;8.23;3.75;;;11.10;63.30;;;;;;5019372;28;20083;-79
2023/01/27 13:16:26;;;;;;;5.15;3.65;;;11.10;63.30;;;;;;5020129;28;20067;-83
2023/01/27 13:18:54;;;;;;;5.90;3.83;;;11.10;63.30;;;;;;5018914;28;20045;-84
2023/01/27 13:21:25;;;;;;;7.97;3.65;;;11.10;63.20;;;;;;5019091;28;20037;-86
2023/01/27 13:23:54;;;;;;;6.53;4.00;;;11.10;63.10;;;;;;5019528;28;20604;-95
2023/01/27 13:26:29;;;;;;;8.27;3.92;;;11.10;62.90;;;;;;5025131;28;20037;-91
2023/01/27 13:29:16;;;;;;;12.50;3.85;;;11.10;63.00;;;;;;5019972;28;20057;-84
2023/01/27 13:32:04;;;;;;;6.47;3.67;;;11.10;63.10;;;;;;5015583;28;20411;-85
2023/01/27 13:34:52;;;;;;;6.93;3.90;;;11.10;63.10;;;;;;5019648;28;20504;-84
2023/01/27 13:37:22;;;;;;;6.18;4.18;;;11.20;63.10;;;;;;5019321;28;20029;-85
2023/01/27 13:40:09;;;;;;;7.75;4.00;;;11.10;63.10;;;;;;5018023;28;20107;-86
2023/01/27 13:43:12;;;;;;;9.00;3.75;;;11.10;63.10;;;;;;5001868;28;20717;-82
2023/01/27 13:45:56;;;;;;;7.22;3.58;;;11.10;63.60;;;;;;5005948;28;20729;-86